Time;durP1;ratioP1;P1;durP2;ratioP2;P2;SDS_P1;SDS_P2;PMS_P1;PMS_P2;Temp;Humidity;BMP_temperature;BMP_pressure;BME280_temperature;BME280_humidity;BME280_pressure;Samples;Min_cycle;Max_cycle;Signal;HPM_P1;HPM_P2
2022/07/05 00:01:20;;;;;;;2.60;1.40;;;19.90;65.00;;;;;;10344399;28;20260;-68
2022/07/05 00:06:21;;;;;;;3.50;1.30;;;19.80;66.10;;;;;;10344358;28;20221;-67
2022/07/05 00:11:21;;;;;;;3.17;1.40;;;19.70;66.30;;;;;;10359565;28;20224;-67
2022/07/05 00:16:22;;;;;;;2.57;1.17;;;19.60;67.20;;;;;;10356887;28;20287;-67
2022/07/05 00:21:22;;;;;;;3.67;1.57;;;19.50;67.80;;;;;;10365271;28;20228;-67
2022/07/05 00:26:23;;;;;;;2.57;1.07;;;19.50;68.00;;;;;;10360696;28;20232;-67
2022/07/05 00:31:27;;;;;;;2.40;1.33;;;19.40;68.00;;;;;;10357081;28;20244;-67
2022/07/05 00:36:27;;;;;;;1.90;1.20;;;19.30;68.10;;;;;;10340655;28;20240;-67
2022/07/05 00:41:28;;;;;;;3.50;1.50;;;19.30;68.30;;;;;;10357435;28;20228;-67
2022/07/05 00:46:29;;;;;;;3.30;1.13;;;19.20;68.70;;;;;;10363248;28;20229;-67
2022/07/05 00:51:32;;;;;;;2.20;1.40;;;19.00;70.20;;;;;;10352720;28;20649;-67
2022/07/05 00:56:33;;;;;;;2.87;1.40;;;19.00;70.90;;;;;;10357553;28;20240;-66
2022/07/05 01:01:33;;;;;;;2.33;1.37;;;18.90;71.40;;;;;;10363041;28;20224;-66
2022/07/05 01:06:34;;;;;;;1.80;1.30;;;18.80;71.80;;;;;;10356057;28;20226;-66
2022/07/05 01:11:35;;;;;;;4.17;1.30;;;18.70;72.10;;;;;;10357600;28;20236;-67
2022/07/05 01:16:35;;;;;;;2.87;1.23;;;18.70;72.70;;;;;;10358740;28;20592;-67
2022/07/05 01:21:39;;;;;;;3.27;1.40;;;18.60;73.00;;;;;;10360237;28;20218;-67
2022/07/05 01:26:41;;;;;;;1.60;1.40;;;18.40;73.30;;;;;;10357137;28;20222;-66
2022/07/05 01:31:42;;;;;;;3.50;1.60;;;18.40;73.90;;;;;;10356237;28;20304;-68
2022/07/05 01:36:44;;;;;;;4.30;1.70;;;18.20;74.10;;;;;;10349318;28;20700;-68
2022/07/05 01:41:47;;;;;;;1.97;1.70;;;18.10;74.70;;;;;;10352731;28;20309;-68
2022/07/05 01:46:54;;;;;;;2.77;1.80;;;18.00;75.80;;;;;;10331904;28;20236;-66
2022/07/05 01:51:58;;;;;;;3.37;1.90;;;17.90;76.40;;;;;;10348330;28;20217;-67
2022/07/05 01:56:59;;;;;;;2.27;1.50;;;17.90;76.80;;;;;;10351306;28;20309;-68
2022/07/05 02:02:00;;;;;;;3.93;1.90;;;17.80;77.50;;;;;;10353001;28;20676;-69
2022/07/05 02:07:05;;;;;;;3.73;1.70;;;17.80;78.40;;;;;;10333497;28;20245;-68
2022/07/05 02:12:06;;;;;;;2.33;1.60;;;17.90;78.80;;;;;;10353652;28;20228;-68
2022/07/05 02:17:07;;;;;;;4.23;1.77;;;17.80;78.90;;;;;;10345058;28;20344;-67
2022/07/05 02:22:07;;;;;;;4.23;2.00;;;17.80;79.00;;;;;;10354282;28;20264;-68
2022/07/05 02:27:11;;;;;;;4.33;1.63;;;17.70;80.00;;;;;;10349316;28;20218;-68
2022/07/05 02:32:11;;;;;;;3.60;2.10;;;17.70;81.20;;;;;;10353440;28;20221;-67
2022/07/05 02:37:12;;;;;;;3.87;1.77;;;17.60;82.30;;;;;;10348350;28;20229;-67
2022/07/05 02:42:13;;;;;;;3.07;1.87;;;17.60;83.20;;;;;;10352910;28;20223;-68
2022/07/05 02:47:13;;;;;;;2.67;1.60;;;17.60;83.60;;;;;;10321086;28;20700;-67
2022/07/05 02:52:14;;;;;;;3.97;1.80;;;17.50;84.20;;;;;;10329762;28;20295;-67
2022/07/05 02:57:14;;;;;;;3.50;2.10;;;17.50;85.40;;;;;;10352426;28;20240;-67
2022/07/05 03:02:15;;;;;;;2.77;1.93;;;17.30;86.60;;;;;;10353054;28;20229;-68
2022/07/05 03:07:19;;;;;;;4.13;1.80;;;17.40;88.10;;;;;;10352619;28;20764;-68
2022/07/05 03:12:19;;;;;;;2.37;1.37;;;17.30;89.20;;;;;;10346200;28;20229;-67
2022/07/05 03:17:20;;;;;;;2.13;1.53;;;17.20;90.00;;;;;;10346929;28;20218;-68
2022/07/05 03:22:20;;;;;;;3.37;1.67;;;17.10;90.60;;;;;;10343940;28;20213;-67
2022/07/05 03:27:24;;;;;;;4.43;2.00;;;17.10;91.30;;;;;;10345397;28;20214;-67
2022/07/05 03:32:24;;;;;;;4.43;2.40;;;17.00;92.10;;;;;;10345574;28;20721;-67
2022/07/05 03:37:28;;;;;;;3.33;2.17;;;17.00;92.80;;;;;;10352446;28;20248;-67
2022/07/05 03:42:29;;;;;;;2.93;2.03;;;17.00;93.30;;;;;;10327585;28;20213;-66
2022/07/05 03:47:29;;;;;;;2.37;1.80;;;17.00;94.20;;;;;;10356346;28;20213;-68
2022/07/05 03:52:33;;;;;;;3.87;2.00;;;17.00;94.50;;;;;;10344474;28;20232;-67
2022/07/05 03:57:33;;;;;;;3.87;3.10;;;17.10;94.90;;;;;;10326710;28;20225;-67
2022/07/05 04:02:34;;;;;;;4.70;2.33;;;17.20;95.50;;;;;;10351273;28;20659;-66
2022/07/05 04:07:46;;;;;;;9.50;2.23;;;17.30;95.50;;;;;;10346781;28;20226;-66
2022/07/05 04:12:47;;;;;;;2.83;1.87;;;17.50;95.60;;;;;;10353607;28;20230;-66
2022/07/05 04:17:50;;;;;;;5.67;2.10;;;17.60;94.80;;;;;;10345461;28;20241;-66
2022/07/05 04:22:51;;;;;;;5.93;1.60;;;17.80;94.70;;;;;;10344771;28;20875;-65
2022/07/05 04:27:54;;;;;;;3.40;1.97;;;17.90;93.30;;;;;;10343612;28;20300;-67
2022/07/05 04:32:54;;;;;;;4.93;2.20;;;18.10;93.90;;;;;;10347234;28;20221;-66
2022/07/05 04:37:55;;;;;;;4.63;2.10;;;18.20;94.50;;;;;;10345328;28;20222;-66
2022/07/05 04:42:56;;;;;;;5.30;2.90;;;18.70;94.20;;;;;;10342602;28;20709;-66
2022/07/05 04:47:56;;;;;;;6.57;2.40;;;19.30;91.80;;;;;;10350528;28;20276;-66
2022/07/05 04:52:57;;;;;;;4.37;2.00;;;19.40;90.10;;;;;;10342803;28;20249;-67
2022/07/05 04:57:58;;;;;;;8.53;2.10;;;19.40;90.70;;;;;;10351783;28;20229;-66
2022/07/05 05:02:58;;;;;;;2.57;1.63;;;19.50;90.90;;;;;;10354123;28;20229;-69
2022/07/05 05:07:59;;;;;;;4.93;1.77;;;19.60;88.30;;;;;;10355662;28;20210;-68
2022/07/05 05:12:59;;;;;;;7.00;1.67;;;21.40;83.20;;;;;;10350876;28;20219;-68
2022/07/05 05:18:00;;;;;;;4.70;1.10;;;24.40;64.30;;;;;;10354899;28;20225;-67
2022/07/05 05:23:01;;;;;;;3.17;1.40;;;26.20;56.00;;;;;;10351807;28;20233;-67
2022/07/05 05:28:02;;;;;;;7.83;1.40;;;27.30;51.80;;;;;;10354386;28;20229;-69
2022/07/05 05:33:02;;;;;;;4.33;1.37;;;27.90;48.90;;;;;;10334997;28;20314;-69
2022/07/05 05:38:03;;;;;;;6.63;1.57;;;28.10;47.80;;;;;;10354164;28;20320;-68
2022/07/05 05:43:04;;;;;;;2.07;1.10;;;29.00;46.60;;;;;;10352906;28;20218;-68
2022/07/05 05:48:05;;;;;;;2.40;1.27;;;29.50;45.00;;;;;;10332786;28;20232;-68
2022/07/05 05:53:06;;;;;;;3.37;1.23;;;29.60;45.20;;;;;;10337956;28;20257;-68
2022/07/05 05:58:23;;;;;;;4.97;1.60;;;30.70;44.00;;;;;;10352145;28;20320;-69
2022/07/05 06:03:26;;;;;;;4.00;1.77;;;32.00;41.50;;;;;;10339553;28;20229;-69
2022/07/05 06:08:30;;;;;;;4.60;1.70;;;32.90;39.90;;;;;;10340788;28;20225;-69
2022/07/05 06:13:31;;;;;;;3.23;1.40;;;32.60;38.80;;;;;;10352362;28;20279;-68
2022/07/05 06:18:32;;;;;;;3.00;1.40;;;33.30;37.80;;;;;;10348776;28;20222;-68
2022/07/05 06:23:32;;;;;;;3.93;1.57;;;34.00;37.40;;;;;;10347994;28;20213;-69
2022/07/05 06:28:33;;;;;;;4.43;1.40;;;33.90;36.90;;;;;;10353764;28;20236;-70
2022/07/05 06:33:34;;;;;;;5.20;1.40;;;34.30;36.50;;;;;;10341240;28;20691;-68
2022/07/05 06:38:34;;;;;;;7.33;1.40;;;35.50;34.50;;;;;;10340098;28;20216;-69
2022/07/05 06:43:35;;;;;;;3.47;1.70;;;33.60;36.90;;;;;;10354421;28;20222;-69
2022/07/05 06:48:36;;;;;;;3.03;1.50;;;32.40;38.70;;;;;;10352941;28;20227;-69
2022/07/05 06:53:36;;;;;;;5.17;1.50;;;34.30;36.20;;;;;;10354050;28;20637;-69
2022/07/05 06:58:37;;;;;;;4.27;1.17;;;35.10;35.80;;;;;;10346857;28;20218;-69
2022/07/05 07:03:38;;;;;;;3.50;1.33;;;37.40;33.20;;;;;;10347416;28;20240;-69
2022/07/05 07:13:57;;;;;;;5.07;1.77;;;38.40;32.00;;;;;;10343227;28;20224;-67
2022/07/05 07:18:58;;;;;;;3.77;1.80;;;39.90;29.50;;;;;;10343929;28;20692;-69
2022/07/05 07:23:59;;;;;;;2.13;1.47;;;40.90;28.90;;;;;;10347682;28;20226;-69
2022/07/05 07:28:59;;;;;;;4.10;1.90;;;40.90;28.70;;;;;;10354109;28;20230;-68
2022/07/05 07:34:00;;;;;;;3.43;1.50;;;41.30;27.90;;;;;;10348627;28;20221;-69
2022/07/05 07:39:00;;;;;;;2.60;1.80;;;40.10;28.90;;;;;;10350147;28;20209;-69
2022/07/05 07:44:01;;;;;;;2.13;1.40;;;40.80;28.40;;;;;;10343336;28;20596;-68
2022/07/05 07:49:02;;;;;;;3.20;1.73;;;41.80;28.00;;;;;;10344215;28;20670;-70
2022/07/05 07:54:03;;;;;;;5.45;1.88;;;42.30;27.20;;;;;;10349604;28;20278;-68
2022/07/05 07:59:03;;;;;;;3.70;1.70;;;42.80;26.80;;;;;;10346393;28;20283;-69
2022/07/05 08:04:04;;;;;;;5.45;1.88;;;41.80;27.00;;;;;;10348130;28;20617;-69
2022/07/05 08:09:05;;;;;;;3.15;1.60;;;41.10;27.20;;;;;;10354178;28;20252;-68
2022/07/05 08:14:05;;;;;;;3.65;1.70;;;41.60;27.30;;;;;;10350949;28;20387;-69
2022/07/05 08:24:25;;;;;;;5.45;1.88;;;42.70;26.30;;;;;;10341945;28;20213;-68
2022/07/05 08:29:26;;;;;;;4.68;1.63;;;43.10;26.00;;;;;;10350216;28;20217;-69
2022/07/05 08:34:26;;;;;;;4.13;1.30;;;44.20;25.00;;;;;;10350989;28;20326;-68
2022/07/05 08:39:28;;;;;;;2.60;1.40;;;44.70;24.60;;;;;;10358417;28;20221;-68
2022/07/05 08:44:32;;;;;;;5.30;1.40;;;43.80;24.80;;;;;;10334912;28;20245;-69
2022/07/05 08:49:34;;;;;;;2.55;1.55;;;44.90;23.70;;;;;;10359261;28;20221;-67
2022/07/05 08:54:36;;;;;;;3.15;1.50;;;45.70;23.00;;;;;;10350960;28;20246;-69
2022/07/05 08:59:37;;;;;;;2.83;1.50;;;45.90;23.40;;;;;;10356810;28;20256;-69
2022/07/05 09:04:44;;;;;;;3.08;1.70;;;46.10;23.30;;;;;;10352372;28;20229;-69
2022/07/05 09:09:47;;;;;;;4.65;1.55;;;44.90;24.10;;;;;;10363002;28;20276;-69
2022/07/05 09:14:48;;;;;;;2.03;1.40;;;45.60;23.90;;;;;;10354926;28;20325;-70
2022/07/05 09:20:08;;;;;;;5.10;1.88;;;45.70;23.10;;;;;;10358836;28;20445;-70
2022/07/05 09:25:14;;;;;;;2.90;1.40;;;45.80;23.30;;;;;;10352436;28;20223;-69
2022/07/05 09:30:38;;;;;;;4.53;1.50;;;44.40;24.60;;;;;;10346841;28;20201;-69
2022/07/05 09:35:40;;;;;;;3.42;1.48;;;45.80;22.80;;;;;;10349701;28;20225;-69
2022/07/05 09:40:54;;;;;;;3.70;1.33;;;42.30;24.50;;;;;;10370905;28;20217;-69
2022/07/05 09:46:02;;;;;;;6.53;1.30;;;42.00;25.10;;;;;;10352952;28;20240;-70
2022/07/05 09:51:13;;;;;;;5.82;1.30;;;44.50;23.90;;;;;;10348315;28;20213;-67
2022/07/05 09:56:15;;;;;;;3.40;1.40;;;45.40;22.50;;;;;;10350542;28;20233;-70
2022/07/05 10:01:30;;;;;;;3.00;1.20;;;44.40;22.50;;;;;;10348482;28;20248;-70
2022/07/05 10:06:32;;;;;;;3.45;1.60;;;45.00;22.80;;;;;;10343540;28;20267;-69
2022/07/05 10:11:37;;;;;;;1.77;1.50;;;44.50;22.60;;;;;;10354707;28;20229;-69
2022/07/05 10:16:38;;;;;;;2.08;1.70;;;45.10;22.20;;;;;;10346636;28;20244;-70
2022/07/05 10:21:40;;;;;;;2.03;1.48;;;46.30;21.30;;;;;;10349041;28;20241;-69
2022/07/05 10:26:41;;;;;;;2.30;1.40;;;45.80;21.60;;;;;;10346505;28;20593;-68
2022/07/05 10:31:44;;;;;;;2.10;1.40;;;45.80;22.00;;;;;;10347710;28;20696;-69
2022/07/05 10:36:44;;;;;;;3.10;1.20;;;43.50;23.00;;;;;;10346645;28;20279;-69
2022/07/05 10:41:46;;;;;;;3.80;1.30;;;41.90;24.90;;;;;;10348168;28;20225;-69
2022/07/05 10:46:46;;;;;;;3.50;1.42;;;42.00;24.50;;;;;;10345795;28;20233;-70
2022/07/05 10:51:47;;;;;;;2.03;1.13;;;43.90;23.60;;;;;;10351748;28;20244;-70
2022/07/05 10:57:23;;;;;;;7.63;1.70;;;41.90;24.00;;;;;;10348251;28;20480;-69
2022/07/05 11:02:23;;;;;;;3.40;1.10;;;42.50;24.10;;;;;;10341658;28;20221;-69
2022/07/05 11:07:54;;;;;;;5.95;1.23;;;44.00;23.00;;;;;;10352241;28;20213;-69
2022/07/05 11:12:58;;;;;;;4.13;1.38;;;44.70;22.70;;;;;;10322793;28;20218;-69
2022/07/05 11:18:15;;;;;;;2.40;1.30;;;44.20;22.70;;;;;;10338567;28;20243;-69
2022/07/05 11:23:27;;;;;;;9.43;1.20;;;42.60;23.10;;;;;;10351754;28;20300;-69
2022/07/05 11:28:42;;;;;;;2.60;1.03;;;40.40;24.50;;;;;;10338375;28;20257;-69
2022/07/05 11:33:44;;;;;;;4.47;1.33;;;42.20;23.40;;;;;;10345389;28;20229;-69
2022/07/05 11:39:18;;;;;;;3.67;1.07;;;42.70;23.40;;;;;;10350357;28;20221;-69
2022/07/05 11:44:19;;;;;;;3.70;1.30;;;39.80;24.70;;;;;;10344150;28;20213;-69
2022/07/05 11:49:21;;;;;;;3.53;1.37;;;37.40;27.90;;;;;;10327397;28;20249;-69
2022/07/05 11:54:30;;;;;;;2.10;1.30;;;35.80;29.00;;;;;;10355609;28;20237;-68
2022/07/05 11:59:31;;;;;;;2.70;1.20;;;34.30;30.00;;;;;;10346445;28;20248;-69
2022/07/05 12:04:31;;;;;;;2.43;1.13;;;33.30;30.90;;;;;;10344572;28;20214;-69
2022/07/05 12:14:55;;;;;;;2.13;1.20;;;32.50;31.60;;;;;;10347101;28;20225;-68
2022/07/05 12:19:55;;;;;;;3.47;1.53;;;32.00;31.90;;;;;;10347538;28;20656;-68
2022/07/05 12:24:58;;;;;;;3.73;1.43;;;32.10;31.70;;;;;;10347063;28;20269;-69
2022/07/05 12:30:01;;;;;;;3.17;1.20;;;32.10;31.70;;;;;;10349089;28;20229;-68
2022/07/05 12:35:02;;;;;;;3.23;1.20;;;32.00;31.90;;;;;;10335473;28;20240;-69
2022/07/05 12:40:07;;;;;;;4.20;1.43;;;32.00;32.00;;;;;;10347827;28;20229;-67
2022/07/05 12:45:18;;;;;;;2.50;1.20;;;31.70;34.20;;;;;;10350212;28;20330;-67
2022/07/05 12:50:19;;;;;;;7.23;1.47;;;31.30;34.70;;;;;;10345100;28;20210;-66
2022/07/05 13:00:39;;;;;;;7.27;2.00;;;31.10;34.70;;;;;;10346938;28;20213;-67
2022/07/05 13:05:40;;;;;;;3.60;1.20;;;31.20;33.50;;;;;;10352475;28;20581;-66
2022/07/05 13:10:46;;;;;;;2.63;1.40;;;31.30;33.40;;;;;;10345047;28;20445;-68
2022/07/05 13:15:47;;;;;;;4.57;1.40;;;30.70;34.70;;;;;;10348778;28;20230;-66
2022/07/05 13:20:49;;;;;;;6.30;1.27;;;30.60;35.40;;;;;;10354386;28;20222;-66
2022/07/05 13:25:50;;;;;;;2.10;1.27;;;30.50;35.20;;;;;;10352636;28;20765;-67
2022/07/05 13:30:51;;;;;;;2.57;1.47;;;30.20;35.80;;;;;;10355433;28;20217;-68
2022/07/05 13:35:51;;;;;;;4.67;1.63;;;30.40;35.30;;;;;;10350318;28;20230;-67
2022/07/05 13:40:52;;;;;;;5.43;1.10;;;30.60;34.00;;;;;;10351839;28;20305;-68
2022/07/05 13:45:53;;;;;;;5.13;1.30;;;31.00;33.60;;;;;;10352248;28;20228;-66
2022/07/05 13:50:53;;;;;;;5.23;1.33;;;31.20;34.10;;;;;;10353870;28;20220;-67
2022/07/05 13:55:54;;;;;;;4.80;1.50;;;31.10;33.30;;;;;;10351892;28;20240;-66
2022/07/05 14:00:54;;;;;;;3.13;1.00;;;31.00;34.40;;;;;;10353529;28;20332;-67
2022/07/05 14:05:55;;;;;;;4.00;1.10;;;30.80;33.70;;;;;;10347818;28;20249;-67
2022/07/05 14:10:59;;;;;;;2.03;1.00;;;30.50;34.10;;;;;;10352516;28;20273;-67
2022/07/05 14:16:00;;;;;;;1.53;1.10;;;30.30;35.50;;;;;;10348115;28;20230;-66
2022/07/05 14:21:00;;;;;;;3.40;1.00;;;30.20;34.20;;;;;;10343272;28;20318;-67
2022/07/05 14:26:02;;;;;;;3.03;1.20;;;30.00;35.70;;;;;;10351584;28;20221;-66
2022/07/05 14:31:02;;;;;;;1.03;0.90;;;30.00;34.60;;;;;;10349997;28;20312;-68
2022/07/05 14:36:04;;;;;;;1.47;0.80;;;30.20;36.00;;;;;;10349267;28;20287;-68
2022/07/05 14:41:05;;;;;;;2.53;0.80;;;30.00;34.50;;;;;;10359810;28;20225;-70
2022/07/05 14:46:07;;;;;;;2.23;1.00;;;29.80;33.90;;;;;;10355892;28;20217;-67
2022/07/05 14:51:08;;;;;;;2.10;1.03;;;29.90;33.20;;;;;;10355928;28;20920;-66
2022/07/05 14:56:09;;;;;;;2.23;0.67;;;30.00;33.00;;;;;;10354400;28;20243;-67
2022/07/05 15:01:10;;;;;;;4.57;0.80;;;30.00;33.20;;;;;;10347579;28;20229;-66
2022/07/05 15:06:11;;;;;;;1.83;0.77;;;29.60;33.00;;;;;;10347842;28;20268;-66
2022/07/05 15:11:12;;;;;;;2.47;0.90;;;29.60;33.40;;;;;;10354527;28;20578;-67
2022/07/05 15:16:12;;;;;;;5.30;1.13;;;29.80;33.40;;;;;;10337871;28;20225;-67
2022/07/05 15:21:13;;;;;;;3.27;1.00;;;30.00;32.70;;;;;;10344042;28;20221;-67
2022/07/05 15:26:14;;;;;;;7.70;1.10;;;29.80;33.60;;;;;;10345127;28;20221;-67
2022/07/05 15:31:14;;;;;;;2.30;0.80;;;29.60;34.20;;;;;;10346499;28;20704;-66
2022/07/05 15:36:15;;;;;;;2.97;1.00;;;29.80;34.40;;;;;;10352186;28;20384;-67
2022/07/05 15:41:15;;;;;;;2.33;1.00;;;30.20;34.50;;;;;;10351302;28;20221;-68
2022/07/05 15:46:16;;;;;;;6.30;1.20;;;29.90;34.40;;;;;;10353798;28;20315;-68
2022/07/05 15:51:17;;;;;;;4.07;1.10;;;29.30;35.60;;;;;;10346716;28;20736;-67
2022/07/05 15:56:18;;;;;;;3.50;1.20;;;29.00;36.20;;;;;;10351260;28;20240;-67
2022/07/05 16:01:18;;;;;;;6.63;1.30;;;28.60;37.60;;;;;;10339926;28;20224;-66
2022/07/05 16:06:19;;;;;;;1.87;1.30;;;28.30;38.80;;;;;;10351411;28;20672;-66
2022/07/05 16:11:20;;;;;;;2.93;1.10;;;28.10;39.60;;;;;;10345869;28;20692;-68
2022/07/05 16:16:23;;;;;;;1.93;1.10;;;27.90;40.10;;;;;;10348487;28;20218;-66
2022/07/05 16:21:24;;;;;;;2.20;1.33;;;27.90;40.50;;;;;;10315694;28;20796;-67
2022/07/05 16:26:28;;;;;;;2.00;1.40;;;27.80;40.80;;;;;;10349004;28;20225;-65
2022/07/05 16:31:28;;;;;;;7.83;1.50;;;28.10;40.50;;;;;;10321453;28;20236;-66
2022/07/05 16:36:29;;;;;;;3.23;1.40;;;28.30;40.50;;;;;;10350195;28;20232;-66
2022/07/05 16:41:30;;;;;;;2.87;1.47;;;28.30;41.10;;;;;;10351580;28;20225;-66
2022/07/05 16:46:31;;;;;;;2.67;1.80;;;28.10;41.90;;;;;;10344193;28;20222;-66
2022/07/05 16:51:35;;;;;;;8.60;1.60;;;27.80;42.00;;;;;;10346530;28;20276;-67
2022/07/05 16:56:35;;;;;;;3.73;1.90;;;27.80;43.00;;;;;;10350818;28;20256;-67
2022/07/05 17:01:36;;;;;;;4.20;1.70;;;27.50;43.10;;;;;;10365923;28;20276;-67
2022/07/05 17:06:37;;;;;;;1.67;1.40;;;27.30;44.20;;;;;;10335048;28;20590;-67
2022/07/05 17:11:38;;;;;;;3.47;1.63;;;27.10;44.80;;;;;;10341105;28;20278;-67
2022/07/05 17:16:39;;;;;;;2.30;2.00;;;26.90;45.20;;;;;;10352336;28;20229;-68
2022/07/05 17:21:39;;;;;;;3.33;1.90;;;26.80;45.70;;;;;;10339557;28;20217;-68
2022/07/05 17:26:40;;;;;;;2.53;1.80;;;26.80;46.10;;;;;;10353105;28;20218;-68
2022/07/05 17:31:41;;;;;;;4.40;1.97;;;26.80;46.40;;;;;;10357650;28;20223;-68
2022/07/05 17:36:41;;;;;;;2.23;1.80;;;26.80;46.10;;;;;;10352068;28;20237;-68
2022/07/05 17:41:42;;;;;;;4.43;2.03;;;26.70;46.20;;;;;;10356217;28;20224;-68
2022/07/05 17:46:43;;;;;;;2.70;1.70;;;26.70;46.10;;;;;;10353062;28;20226;-67
2022/07/05 17:51:47;;;;;;;2.27;1.70;;;26.70;46.50;;;;;;10334632;28;20249;-69
2022/07/05 17:56:48;;;;;;;5.13;1.63;;;26.60;46.50;;;;;;10353661;28;20234;-68
2022/07/05 18:01:49;;;;;;;3.23;2.00;;;26.50;46.50;;;;;;10351799;28;20234;-68
2022/07/05 18:06:49;;;;;;;3.13;1.80;;;26.40;47.00;;;;;;10328321;28;20253;-67
2022/07/05 18:11:50;;;;;;;3.77;2.10;;;26.20;46.90;;;;;;10360521;28;20221;-68
2022/07/05 18:16:51;;;;;;;5.20;1.80;;;26.10;47.00;;;;;;10353188;28;20229;-68
2022/07/05 18:21:52;;;;;;;3.10;1.90;;;25.90;47.20;;;;;;10353751;28;20226;-68
2022/07/05 18:26:52;;;;;;;5.17;1.70;;;25.90;47.40;;;;;;10357161;28;20308;-68
2022/07/05 18:31:54;;;;;;;4.53;1.67;;;25.70;47.40;;;;;;10350878;28;20223;-69
2022/07/05 18:36:54;;;;;;;3.50;1.73;;;25.50;47.50;;;;;;10352266;28;20237;-68
2022/07/05 18:41:55;;;;;;;5.03;1.73;;;25.40;47.60;;;;;;10350547;28;20311;-68
2022/07/05 18:46:56;;;;;;;4.13;1.60;;;25.30;47.80;;;;;;10351356;28;20229;-68
2022/07/05 18:51:57;;;;;;;2.63;1.90;;;25.10;48.10;;;;;;10351656;28;20232;-68
2022/07/05 18:56:57;;;;;;;2.80;1.77;;;24.90;48.50;;;;;;10349268;28;20246;-68
2022/07/05 19:01:58;;;;;;;3.13;1.90;;;24.80;48.70;;;;;;10350767;28;20225;-69
2022/07/05 19:17:39;;;;;;;2.87;1.37;;;24.50;49.30;;;;;;10341238;28;20250;-68
2022/07/05 19:22:40;;;;;;;8.13;2.87;;;24.40;49.40;;;;;;10346214;28;20221;-67
2022/07/05 19:27:41;;;;;;;4.00;1.90;;;24.50;52.90;;;;;;10335159;28;20234;-68
2022/07/05 19:32:41;;;;;;;4.77;1.40;;;24.70;50.40;;;;;;10354156;28;20230;-67
2022/07/05 19:37:45;;;;;;;2.80;1.63;;;24.60;48.70;;;;;;10347693;28;20230;-67
2022/07/05 19:42:49;;;;;;;4.37;1.60;;;24.30;49.20;;;;;;10348036;28;20278;-66
2022/07/05 19:47:50;;;;;;;2.87;1.53;;;24.10;49.20;;;;;;10329996;28;20599;-66
2022/07/05 19:52:51;;;;;;;3.70;1.90;;;24.00;49.80;;;;;;10350030;28;20283;-67
2022/07/05 19:57:52;;;;;;;3.13;1.50;;;23.80;50.40;;;;;;10354730;28;20248;-67
2022/07/05 20:02:52;;;;;;;4.03;1.80;;;23.60;50.90;;;;;;10348021;28;20247;-69
2022/07/05 20:07:53;;;;;;;2.17;1.80;;;23.50;51.80;;;;;;10342960;28;20220;-67
2022/07/05 20:12:53;;;;;;;2.67;1.30;;;23.40;51.50;;;;;;10345896;28;20228;-69
2022/07/05 20:17:54;;;;;;;5.03;1.80;;;23.30;51.60;;;;;;10346022;28;20784;-67
2022/07/05 20:22:55;;;;;;;3.60;1.83;;;23.20;52.30;;;;;;10345693;28;20232;-66
2022/07/05 20:27:58;;;;;;;2.47;1.30;;;23.20;52.50;;;;;;10352057;28;20225;-69
2022/07/05 20:32:59;;;;;;;5.53;1.43;;;23.20;51.20;;;;;;10330107;28;20284;-68
2022/07/05 20:38:00;;;;;;;3.67;1.70;;;23.20;51.20;;;;;;10355728;28;20221;-67
2022/07/05 20:43:01;;;;;;;1.43;1.17;;;23.20;51.20;;;;;;10354329;28;20217;-67
2022/07/05 20:48:02;;;;;;;4.73;1.43;;;23.10;51.00;;;;;;10361481;28;20211;-69
2022/07/05 20:53:03;;;;;;;2.43;1.30;;;23.00;51.40;;;;;;10354620;28;20216;-69
2022/07/05 20:58:03;;;;;;;4.40;1.60;;;22.90;51.70;;;;;;10358204;28;20869;-68
2022/07/05 21:03:04;;;;;;;4.27;1.70;;;22.80;51.90;;;;;;10356103;28;20262;-67
2022/07/05 21:08:05;;;;;;;4.33;1.50;;;22.70;52.10;;;;;;10353661;28;20766;-68
2022/07/05 21:13:06;;;;;;;3.67;1.73;;;22.60;52.50;;;;;;10355547;28;20624;-68
2022/07/05 21:18:06;;;;;;;2.67;1.60;;;22.50;52.80;;;;;;10355887;28;20590;-67
2022/07/05 21:23:07;;;;;;;2.30;1.37;;;22.40;53.10;;;;;;10358426;28;20282;-68
2022/07/05 21:28:07;;;;;;;2.63;1.50;;;22.30;53.30;;;;;;10351822;28;20596;-67
2022/07/05 21:33:08;;;;;;;2.23;1.30;;;22.30;53.60;;;;;;10348871;28;20709;-66
2022/07/05 21:38:08;;;;;;;2.07;1.30;;;22.20;54.00;;;;;;10353529;28;20229;-67
2022/07/05 21:43:09;;;;;;;2.20;1.70;;;22.10;54.40;;;;;;10351156;28;20225;-66
2022/07/05 21:48:10;;;;;;;4.00;1.90;;;22.00;54.70;;;;;;10348223;28;20218;-67
2022/07/05 21:53:11;;;;;;;2.80;1.60;;;21.90;55.00;;;;;;10356451;28;20268;-67
2022/07/05 21:58:12;;;;;;;2.57;1.40;;;21.70;55.10;;;;;;10353735;28;20262;-66
2022/07/05 22:08:32;;;;;;;3.37;1.77;;;21.50;55.60;;;;;;10347627;28;20237;-65
2022/07/05 22:13:33;;;;;;;4.07;1.40;;;21.40;56.10;;;;;;10348236;28;20258;-68
2022/07/05 22:18:34;;;;;;;5.07;1.80;;;21.20;56.60;;;;;;10350324;28;20226;-67
2022/07/05 22:23:34;;;;;;;4.50;1.50;;;21.10;57.00;;;;;;10354238;28;20217;-69
2022/07/05 22:28:35;;;;;;;1.90;1.40;;;21.00;57.40;;;;;;10330331;28;20225;-68
2022/07/05 22:33:36;;;;;;;2.87;1.50;;;20.90;58.00;;;;;;10345931;28;20229;-67
2022/07/05 22:38:36;;;;;;;3.17;1.60;;;20.70;58.40;;;;;;10330539;28;20292;-67
2022/07/05 22:43:37;;;;;;;3.73;1.60;;;20.60;58.90;;;;;;10349629;28;20220;-68
2022/07/05 22:48:37;;;;;;;3.27;1.97;;;20.50;59.40;;;;;;10355219;28;20232;-67
2022/07/05 22:53:42;;;;;;;5.97;1.60;;;20.40;59.90;;;;;;10352818;28;20225;-68
2022/07/05 22:58:46;;;;;;;2.93;1.50;;;20.30;60.20;;;;;;10347807;28;20697;-68
2022/07/05 23:03:46;;;;;;;4.43;1.87;;;20.30;60.80;;;;;;10352458;28;20257;-67
2022/07/05 23:08:47;;;;;;;2.83;1.60;;;20.30;60.90;;;;;;10348652;28;20640;-67
2022/07/05 23:13:47;;;;;;;2.87;1.40;;;20.30;60.80;;;;;;10338586;28;20244;-67
2022/07/05 23:18:50;;;;;;;4.70;1.90;;;20.30;61.00;;;;;;10348398;28;20236;-66
2022/07/05 23:29:10;;;;;;;3.33;1.50;;;20.20;61.60;;;;;;10347189;28;20225;-67
2022/07/05 23:34:11;;;;;;;4.03;1.73;;;20.10;62.10;;;;;;10350010;28;20704;-67
2022/07/05 23:39:14;;;;;;;4.77;1.73;;;20.00;62.50;;;;;;10353508;28;20217;-67
2022/07/05 23:44:15;;;;;;;2.73;1.70;;;19.90;63.00;;;;;;10346438;28;20226;-68
2022/07/05 23:49:16;;;;;;;3.33;1.73;;;19.80;63.80;;;;;;10347915;28;20248;-67
2022/07/05 23:54:16;;;;;;;3.00;1.63;;;19.70;64.70;;;;;;10350574;28;20225;-66
2022/07/05 23:59:17;;;;;;;1.87;1.40;;;19.60;65.30;;;;;;10351637;28;20259;-66
